sensor_id;sensor_type;location;lat;lon;timestamp;P1;durP1;ratioP1;P2;durP2;ratioP2
12840;SDS011;6487;48.626;12.486;2023-02-03T00:01:38;2.43;;;1.80;;
12840;SDS011;6487;48.626;12.486;2023-02-03T00:04:07;2.97;;;1.63;;
12840;SDS011;6487;48.626;12.486;2023-02-03T00:06:35;1.90;;;1.60;;
12840;SDS011;6487;48.626;12.486;2023-02-03T00:09:04;2.87;;;1.50;;
12840;SDS011;6487;48.626;12.486;2023-02-03T00:11:32;3.63;;;1.50;;
12840;SDS011;6487;48.626;12.486;2023-02-03T00:14:00;1.93;;;1.60;;
12840;SDS011;6487;48.626;12.486;2023-02-03T00:16:32;1.77;;;1.47;;
12840;SDS011;6487;48.626;12.486;2023-02-03T00:19:00;2.50;;;1.70;;
12840;SDS011;6487;48.626;12.486;2023-02-03T00:21:28;1.93;;;1.37;;
12840;SDS011;6487;48.626;12.486;2023-02-03T00:23:57;3.33;;;1.53;;
12840;SDS011;6487;48.626;12.486;2023-02-03T00:26:25;3.90;;;1.73;;
12840;SDS011;6487;48.626;12.486;2023-02-03T00:28:53;1.53;;;1.43;;
12840;SDS011;6487;48.626;12.486;2023-02-03T00:31:23;2.10;;;1.53;;
12840;SDS011;6487;48.626;12.486;2023-02-03T00:33:56;2.90;;;1.60;;
12840;SDS011;6487;48.626;12.486;2023-02-03T00:36:24;1.40;;;1.30;;
12840;SDS011;6487;48.626;12.486;2023-02-03T00:38:53;3.33;;;1.40;;
12840;SDS011;6487;48.626;12.486;2023-02-03T00:41:22;1.73;;;1.40;;
12840;SDS011;6487;48.626;12.486;2023-02-03T00:43:50;1.93;;;1.63;;
12840;SDS011;6487;48.626;12.486;2023-02-03T00:46:18;1.83;;;1.40;;
12840;SDS011;6487;48.626;12.486;2023-02-03T00:48:47;4.53;;;1.80;;
12840;SDS011;6487;48.626;12.486;2023-02-03T00:51:16;2.43;;;1.77;;
12840;SDS011;6487;48.626;12.486;2023-02-03T00:53:45;3.87;;;1.60;;
12840;SDS011;6487;48.626;12.486;2023-02-03T00:56:14;1.50;;;1.40;;
12840;SDS011;6487;48.626;12.486;2023-02-03T00:58:42;2.00;;;1.53;;
12840;SDS011;6487;48.626;12.486;2023-02-03T01:01:10;2.30;;;1.50;;
12840;SDS011;6487;48.626;12.486;2023-02-03T01:03:39;3.60;;;1.50;;
12840;SDS011;6487;48.626;12.486;2023-02-03T01:06:08;1.83;;;1.60;;
12840;SDS011;6487;48.626;12.486;2023-02-03T01:08:41;1.90;;;1.77;;
12840;SDS011;6487;48.626;12.486;2023-02-03T01:11:10;2.47;;;1.50;;
12840;SDS011;6487;48.626;12.486;2023-02-03T01:13:42;2.53;;;1.83;;
12840;SDS011;6487;48.626;12.486;2023-02-03T01:16:12;1.70;;;1.30;;
12840;SDS011;6487;48.626;12.486;2023-02-03T01:18:43;1.60;;;1.50;;
12840;SDS011;6487;48.626;12.486;2023-02-03T01:21:13;2.40;;;1.30;;
12840;SDS011;6487;48.626;12.486;2023-02-03T01:23:45;3.77;;;1.57;;
12840;SDS011;6487;48.626;12.486;2023-02-03T01:26:14;1.63;;;1.50;;
12840;SDS011;6487;48.626;12.486;2023-02-03T01:28:49;2.13;;;1.40;;
12840;SDS011;6487;48.626;12.486;2023-02-03T01:31:19;2.00;;;1.50;;
12840;SDS011;6487;48.626;12.486;2023-02-03T01:33:50;3.33;;;1.30;;
12840;SDS011;6487;48.626;12.486;2023-02-03T01:36:20;2.67;;;1.47;;
12840;SDS011;6487;48.626;12.486;2023-02-03T01:38:52;2.27;;;1.63;;
12840;SDS011;6487;48.626;12.486;2023-02-03T01:41:23;2.73;;;1.73;;
12840;SDS011;6487;48.626;12.486;2023-02-03T01:43:55;1.47;;;1.30;;
12840;SDS011;6487;48.626;12.486;2023-02-03T01:46:27;2.03;;;1.50;;
12840;SDS011;6487;48.626;12.486;2023-02-03T01:49:00;3.40;;;1.40;;
12840;SDS011;6487;48.626;12.486;2023-02-03T01:51:36;1.40;;;1.10;;
12840;SDS011;6487;48.626;12.486;2023-02-03T01:54:11;3.53;;;1.47;;
12840;SDS011;6487;48.626;12.486;2023-02-03T01:56:45;1.60;;;1.50;;
12840;SDS011;6487;48.626;12.486;2023-02-03T01:59:18;1.87;;;1.20;;
12840;SDS011;6487;48.626;12.486;2023-02-03T02:01:48;2.27;;;1.47;;
12840;SDS011;6487;48.626;12.486;2023-02-03T02:04:18;2.70;;;1.70;;
12840;SDS011;6487;48.626;12.486;2023-02-03T02:06:48;2.80;;;1.90;;
12840;SDS011;6487;48.626;12.486;2023-02-03T02:09:18;3.17;;;1.50;;
12840;SDS011;6487;48.626;12.486;2023-02-03T02:11:47;5.90;;;2.00;;
12840;SDS011;6487;48.626;12.486;2023-02-03T02:14:15;1.60;;;1.20;;
12840;SDS011;6487;48.626;12.486;2023-02-03T02:16:44;1.70;;;1.40;;
12840;SDS011;6487;48.626;12.486;2023-02-03T02:19:28;2.17;;;1.33;;
12840;SDS011;6487;48.626;12.486;2023-02-03T02:22:34;2.07;;;1.30;;
12840;SDS011;6487;48.626;12.486;2023-02-03T02:25:21;4.53;;;1.70;;
12840;SDS011;6487;48.626;12.486;2023-02-03T02:28:32;2.20;;;1.80;;
12840;SDS011;6487;48.626;12.486;2023-02-03T02:31:37;2.33;;;1.30;;
12840;SDS011;6487;48.626;12.486;2023-02-03T02:34:27;3.47;;;1.60;;
12840;SDS011;6487;48.626;12.486;2023-02-03T02:37:13;2.67;;;1.60;;
12840;SDS011;6487;48.626;12.486;2023-02-03T02:39:52;1.83;;;1.47;;
12840;SDS011;6487;48.626;12.486;2023-02-03T02:42:29;1.50;;;1.40;;
12840;SDS011;6487;48.626;12.486;2023-02-03T02:45:05;2.03;;;1.50;;
12840;SDS011;6487;48.626;12.486;2023-02-03T02:47:40;2.53;;;1.30;;
12840;SDS011;6487;48.626;12.486;2023-02-03T02:50:10;2.10;;;1.50;;
12840;SDS011;6487;48.626;12.486;2023-02-03T02:52:44;3.60;;;1.63;;
12840;SDS011;6487;48.626;12.486;2023-02-03T02:55:16;2.40;;;1.37;;
12840;SDS011;6487;48.626;12.486;2023-02-03T02:57:50;1.93;;;1.40;;
12840;SDS011;6487;48.626;12.486;2023-02-03T03:00:23;2.87;;;1.50;;
12840;SDS011;6487;48.626;12.486;2023-02-03T03:02:53;3.63;;;1.30;;
12840;SDS011;6487;48.626;12.486;2023-02-03T03:05:22;1.60;;;1.50;;
12840;SDS011;6487;48.626;12.486;2023-02-03T03:07:53;2.43;;;1.57;;
12840;SDS011;6487;48.626;12.486;2023-02-03T03:10:27;1.80;;;1.70;;
12840;SDS011;6487;48.626;12.486;2023-02-03T03:12:59;3.13;;;1.60;;
12840;SDS011;6487;48.626;12.486;2023-02-03T03:15:31;3.17;;;1.40;;
12840;SDS011;6487;48.626;12.486;2023-02-03T03:18:03;2.40;;;1.70;;
12840;SDS011;6487;48.626;12.486;2023-02-03T03:20:38;1.83;;;1.63;;
12840;SDS011;6487;48.626;12.486;2023-02-03T03:23:10;2.00;;;1.80;;
12840;SDS011;6487;48.626;12.486;2023-02-03T03:25:47;2.00;;;1.80;;
12840;SDS011;6487;48.626;12.486;2023-02-03T03:28:21;1.83;;;1.67;;
12840;SDS011;6487;48.626;12.486;2023-02-03T03:31:03;3.33;;;1.50;;
12840;SDS011;6487;48.626;12.486;2023-02-03T03:33:33;3.63;;;1.77;;
12840;SDS011;6487;48.626;12.486;2023-02-03T03:36:02;2.87;;;2.17;;
12840;SDS011;6487;48.626;12.486;2023-02-03T03:38:39;1.87;;;1.70;;
12840;SDS011;6487;48.626;12.486;2023-02-03T03:41:13;4.10;;;1.73;;
12840;SDS011;6487;48.626;12.486;2023-02-03T03:43:49;2.17;;;1.97;;
12840;SDS011;6487;48.626;12.486;2023-02-03T03:46:20;1.97;;;1.67;;
12840;SDS011;6487;48.626;12.486;2023-02-03T03:48:54;4.00;;;2.03;;
12840;SDS011;6487;48.626;12.486;2023-02-03T03:51:27;3.67;;;1.90;;
12840;SDS011;6487;48.626;12.486;2023-02-03T03:54:02;4.07;;;1.80;;
12840;SDS011;6487;48.626;12.486;2023-02-03T03:56:35;3.27;;;1.90;;
12840;SDS011;6487;48.626;12.486;2023-02-03T03:59:10;4.13;;;1.70;;
12840;SDS011;6487;48.626;12.486;2023-02-03T04:01:42;2.97;;;1.73;;
12840;SDS011;6487;48.626;12.486;2023-02-03T04:04:13;2.90;;;1.87;;
12840;SDS011;6487;48.626;12.486;2023-02-03T04:06:43;4.67;;;2.10;;
12840;SDS011;6487;48.626;12.486;2023-02-03T04:09:11;2.20;;;1.87;;
12840;SDS011;6487;48.626;12.486;2023-02-03T04:11:39;4.80;;;2.00;;
12840;SDS011;6487;48.626;12.486;2023-02-03T04:14:25;2.00;;;1.77;;
12840;SDS011;6487;48.626;12.486;2023-02-03T04:16:55;2.60;;;1.67;;
12840;SDS011;6487;48.626;12.486;2023-02-03T04:19:25;5.10;;;1.63;;
12840;SDS011;6487;48.626;12.486;2023-02-03T04:21:53;2.70;;;1.50;;
12840;SDS011;6487;48.626;12.486;2023-02-03T04:24:22;3.50;;;1.60;;
12840;SDS011;6487;48.626;12.486;2023-02-03T04:26:50;1.77;;;1.40;;
12840;SDS011;6487;48.626;12.486;2023-02-03T04:29:18;2.37;;;1.77;;
12840;SDS011;6487;48.626;12.486;2023-02-03T04:31:46;2.03;;;1.63;;
12840;SDS011;6487;48.626;12.486;2023-02-03T04:34:15;1.73;;;1.60;;
12840;SDS011;6487;48.626;12.486;2023-02-03T04:36:45;2.67;;;1.63;;
12840;SDS011;6487;48.626;12.486;2023-02-03T04:39:13;2.47;;;1.70;;
12840;SDS011;6487;48.626;12.486;2023-02-03T04:41:41;3.20;;;1.50;;
12840;SDS011;6487;48.626;12.486;2023-02-03T04:44:09;1.97;;;1.60;;
12840;SDS011;6487;48.626;12.486;2023-02-03T04:46:38;2.67;;;1.83;;
12840;SDS011;6487;48.626;12.486;2023-02-03T04:49:06;2.30;;;1.77;;
12840;SDS011;6487;48.626;12.486;2023-02-03T04:51:36;2.63;;;1.43;;
12840;SDS011;6487;48.626;12.486;2023-02-03T04:54:06;4.60;;;1.80;;
12840;SDS011;6487;48.626;12.486;2023-02-03T04:56:35;2.80;;;1.63;;
12840;SDS011;6487;48.626;12.486;2023-02-03T04:59:04;3.20;;;1.70;;
12840;SDS011;6487;48.626;12.486;2023-02-03T05:01:32;2.37;;;1.70;;
12840;SDS011;6487;48.626;12.486;2023-02-03T05:04:00;1.57;;;1.40;;
12840;SDS011;6487;48.626;12.486;2023-02-03T05:06:29;5.00;;;1.47;;
12840;SDS011;6487;48.626;12.486;2023-02-03T05:08:58;2.20;;;1.50;;
12840;SDS011;6487;48.626;12.486;2023-02-03T05:11:27;1.43;;;1.20;;
12840;SDS011;6487;48.626;12.486;2023-02-03T05:13:56;1.87;;;1.47;;
12840;SDS011;6487;48.626;12.486;2023-02-03T05:16:24;2.13;;;1.60;;
12840;SDS011;6487;48.626;12.486;2023-02-03T05:18:53;5.50;;;1.70;;
12840;SDS011;6487;48.626;12.486;2023-02-03T05:21:21;3.13;;;1.60;;
12840;SDS011;6487;48.626;12.486;2023-02-03T05:23:49;1.90;;;1.20;;
12840;SDS011;6487;48.626;12.486;2023-02-03T05:26:17;2.67;;;1.43;;
12840;SDS011;6487;48.626;12.486;2023-02-03T05:28:47;1.90;;;1.20;;
12840;SDS011;6487;48.626;12.486;2023-02-03T05:31:17;2.50;;;1.50;;
12840;SDS011;6487;48.626;12.486;2023-02-03T05:33:46;3.00;;;1.30;;
12840;SDS011;6487;48.626;12.486;2023-02-03T05:36:14;2.07;;;1.20;;
12840;SDS011;6487;48.626;12.486;2023-02-03T05:38:42;1.20;;;1.03;;
12840;SDS011;6487;48.626;12.486;2023-02-03T05:41:10;4.33;;;1.50;;
12840;SDS011;6487;48.626;12.486;2023-02-03T05:43:58;3.23;;;1.60;;
12840;SDS011;6487;48.626;12.486;2023-02-03T05:46:26;2.70;;;1.67;;
12840;SDS011;6487;48.626;12.486;2023-02-03T05:48:54;2.77;;;1.10;;
12840;SDS011;6487;48.626;12.486;2023-02-03T05:51:23;2.50;;;1.43;;
12840;SDS011;6487;48.626;12.486;2023-02-03T05:53:51;1.43;;;1.33;;
12840;SDS011;6487;48.626;12.486;2023-02-03T05:56:19;1.30;;;1.20;;
12840;SDS011;6487;48.626;12.486;2023-02-03T05:58:47;3.13;;;1.60;;
12840;SDS011;6487;48.626;12.486;2023-02-03T06:01:19;1.50;;;1.40;;
12840;SDS011;6487;48.626;12.486;2023-02-03T06:03:48;2.27;;;1.40;;
12840;SDS011;6487;48.626;12.486;2023-02-03T06:06:16;2.93;;;1.53;;
12840;SDS011;6487;48.626;12.486;2023-02-03T06:08:45;2.27;;;1.07;;
12840;SDS011;6487;48.626;12.486;2023-02-03T06:11:13;2.00;;;1.10;;
12840;SDS011;6487;48.626;12.486;2023-02-03T06:13:41;2.37;;;1.30;;
12840;SDS011;6487;48.626;12.486;2023-02-03T06:16:10;2.03;;;1.40;;
12840;SDS011;6487;48.626;12.486;2023-02-03T06:18:39;2.90;;;1.40;;
12840;SDS011;6487;48.626;12.486;2023-02-03T06:21:08;2.60;;;1.33;;
12840;SDS011;6487;48.626;12.486;2023-02-03T06:23:36;1.17;;;1.07;;
12840;SDS011;6487;48.626;12.486;2023-02-03T06:26:04;1.83;;;1.23;;
12840;SDS011;6487;48.626;12.486;2023-02-03T06:28:32;1.97;;;1.40;;
12840;SDS011;6487;48.626;12.486;2023-02-03T06:31:00;2.37;;;1.43;;
12840;SDS011;6487;48.626;12.486;2023-02-03T06:33:29;2.37;;;1.27;;
12840;SDS011;6487;48.626;12.486;2023-02-03T06:35:59;1.57;;;1.40;;
12840;SDS011;6487;48.626;12.486;2023-02-03T06:38:27;2.80;;;1.30;;
12840;SDS011;6487;48.626;12.486;2023-02-03T06:40:55;2.57;;;1.20;;
12840;SDS011;6487;48.626;12.486;2023-02-03T06:43:24;1.37;;;1.07;;
12840;SDS011;6487;48.626;12.486;2023-02-03T06:45:52;1.27;;;1.17;;
12840;SDS011;6487;48.626;12.486;2023-02-03T06:48:20;2.60;;;1.23;;
12840;SDS011;6487;48.626;12.486;2023-02-03T06:50:49;2.47;;;1.77;;
12840;SDS011;6487;48.626;12.486;2023-02-03T06:53:18;4.13;;;2.63;;
12840;SDS011;6487;48.626;12.486;2023-02-03T06:55:46;5.70;;;3.30;;
12840;SDS011;6487;48.626;12.486;2023-02-03T06:58:15;4.00;;;3.50;;
12840;SDS011;6487;48.626;12.486;2023-02-03T07:00:43;4.60;;;2.80;;
12840;SDS011;6487;48.626;12.486;2023-02-03T07:03:11;4.30;;;2.93;;
12840;SDS011;6487;48.626;12.486;2023-02-03T07:05:39;3.40;;;2.37;;
12840;SDS011;6487;48.626;12.486;2023-02-03T07:08:08;3.83;;;2.50;;
12840;SDS011;6487;48.626;12.486;2023-02-03T07:10:37;2.87;;;2.27;;
12840;SDS011;6487;48.626;12.486;2023-02-03T07:13:07;3.03;;;2.47;;
12840;SDS011;6487;48.626;12.486;2023-02-03T07:15:35;2.80;;;1.87;;
12840;SDS011;6487;48.626;12.486;2023-02-03T07:18:03;2.97;;;1.30;;
12840;SDS011;6487;48.626;12.486;2023-02-03T07:20:32;3.10;;;1.63;;
12840;SDS011;6487;48.626;12.486;2023-02-03T07:23:00;1.97;;;1.23;;
12840;SDS011;6487;48.626;12.486;2023-02-03T07:25:29;2.87;;;1.80;;
12840;SDS011;6487;48.626;12.486;2023-02-03T07:27:59;2.17;;;1.60;;
12840;SDS011;6487;48.626;12.486;2023-02-03T07:30:28;2.27;;;1.80;;
12840;SDS011;6487;48.626;12.486;2023-02-03T07:32:56;4.70;;;3.07;;
12840;SDS011;6487;48.626;12.486;2023-02-03T07:35:24;3.87;;;2.50;;
12840;SDS011;6487;48.626;12.486;2023-02-03T07:37:53;3.27;;;2.60;;
12840;SDS011;6487;48.626;12.486;2023-02-03T07:40:21;3.37;;;1.77;;
12840;SDS011;6487;48.626;12.486;2023-02-03T07:42:50;2.47;;;1.47;;
12840;SDS011;6487;48.626;12.486;2023-02-03T07:45:19;2.33;;;1.43;;
12840;SDS011;6487;48.626;12.486;2023-02-03T07:47:50;3.50;;;1.63;;
12840;SDS011;6487;48.626;12.486;2023-02-03T07:50:18;3.10;;;1.93;;
12840;SDS011;6487;48.626;12.486;2023-02-03T07:52:48;3.07;;;2.77;;
12840;SDS011;6487;48.626;12.486;2023-02-03T07:55:17;2.37;;;1.70;;
12840;SDS011;6487;48.626;12.486;2023-02-03T07:57:45;2.07;;;1.37;;
12840;SDS011;6487;48.626;12.486;2023-02-03T08:00:14;2.17;;;1.40;;
12840;SDS011;6487;48.626;12.486;2023-02-03T08:02:45;2.20;;;1.50;;
12840;SDS011;6487;48.626;12.486;2023-02-03T08:05:14;2.27;;;1.60;;
12840;SDS011;6487;48.626;12.486;2023-02-03T08:07:43;3.53;;;2.10;;
12840;SDS011;6487;48.626;12.486;2023-02-03T08:10:13;3.00;;;1.93;;
12840;SDS011;6487;48.626;12.486;2023-02-03T08:12:43;3.13;;;1.50;;
12840;SDS011;6487;48.626;12.486;2023-02-03T08:15:12;1.90;;;1.70;;
12840;SDS011;6487;48.626;12.486;2023-02-03T08:17:41;4.80;;;1.27;;
12840;SDS011;6487;48.626;12.486;2023-02-03T08:20:11;3.40;;;2.37;;
12840;SDS011;6487;48.626;12.486;2023-02-03T08:22:39;3.20;;;2.67;;
12840;SDS011;6487;48.626;12.486;2023-02-03T08:25:08;2.77;;;1.77;;
12840;SDS011;6487;48.626;12.486;2023-02-03T08:27:38;2.50;;;1.77;;
12840;SDS011;6487;48.626;12.486;2023-02-03T08:30:08;3.17;;;2.47;;
12840;SDS011;6487;48.626;12.486;2023-02-03T08:32:40;4.90;;;3.57;;
12840;SDS011;6487;48.626;12.486;2023-02-03T08:35:08;6.23;;;5.03;;
12840;SDS011;6487;48.626;12.486;2023-02-03T08:37:38;4.03;;;2.53;;
12840;SDS011;6487;48.626;12.486;2023-02-03T08:40:06;4.30;;;2.20;;
12840;SDS011;6487;48.626;12.486;2023-02-03T08:42:37;2.43;;;1.80;;
12840;SDS011;6487;48.626;12.486;2023-02-03T08:45:06;3.60;;;2.27;;
12840;SDS011;6487;48.626;12.486;2023-02-03T08:47:35;4.27;;;2.40;;
12840;SDS011;6487;48.626;12.486;2023-02-03T08:50:04;3.00;;;1.97;;
12840;SDS011;6487;48.626;12.486;2023-02-03T08:52:36;3.20;;;2.00;;
12840;SDS011;6487;48.626;12.486;2023-02-03T08:55:04;3.10;;;2.10;;
12840;SDS011;6487;48.626;12.486;2023-02-03T08:57:33;4.67;;;1.97;;
12840;SDS011;6487;48.626;12.486;2023-02-03T09:00:03;3.13;;;2.00;;
12840;SDS011;6487;48.626;12.486;2023-02-03T09:02:32;3.07;;;2.73;;
12840;SDS011;6487;48.626;12.486;2023-02-03T09:05:01;4.20;;;2.83;;
12840;SDS011;6487;48.626;12.486;2023-02-03T09:07:29;2.57;;;1.77;;
12840;SDS011;6487;48.626;12.486;2023-02-03T09:09:59;2.73;;;2.07;;
12840;SDS011;6487;48.626;12.486;2023-02-03T09:12:27;7.47;;;6.67;;
12840;SDS011;6487;48.626;12.486;2023-02-03T09:14:56;3.70;;;2.70;;
12840;SDS011;6487;48.626;12.486;2023-02-03T09:17:24;3.03;;;2.50;;
12840;SDS011;6487;48.626;12.486;2023-02-03T09:19:53;2.87;;;2.67;;
12840;SDS011;6487;48.626;12.486;2023-02-03T09:22:21;4.30;;;3.40;;
12840;SDS011;6487;48.626;12.486;2023-02-03T09:24:50;5.17;;;2.97;;
12840;SDS011;6487;48.626;12.486;2023-02-03T09:27:19;4.23;;;2.50;;
12840;SDS011;6487;48.626;12.486;2023-02-03T09:29:47;4.53;;;3.23;;
12840;SDS011;6487;48.626;12.486;2023-02-03T09:32:16;4.33;;;2.30;;
12840;SDS011;6487;48.626;12.486;2023-02-03T09:34:44;2.03;;;1.83;;
12840;SDS011;6487;48.626;12.486;2023-02-03T09:37:12;2.57;;;2.10;;
12840;SDS011;6487;48.626;12.486;2023-02-03T09:39:40;1.53;;;1.33;;
12840;SDS011;6487;48.626;12.486;2023-02-03T09:42:15;3.33;;;2.47;;
12840;SDS011;6487;48.626;12.486;2023-02-03T09:45:19;4.50;;;2.30;;
12840;SDS011;6487;48.626;12.486;2023-02-03T09:47:52;3.00;;;2.23;;
12840;SDS011;6487;48.626;12.486;2023-02-03T09:50:25;3.03;;;2.20;;
12840;SDS011;6487;48.626;12.486;2023-02-03T09:52:57;4.37;;;2.90;;
12840;SDS011;6487;48.626;12.486;2023-02-03T09:55:33;4.27;;;2.03;;
12840;SDS011;6487;48.626;12.486;2023-02-03T09:58:09;3.73;;;2.00;;
12840;SDS011;6487;48.626;12.486;2023-02-03T10:00:41;4.93;;;2.20;;
12840;SDS011;6487;48.626;12.486;2023-02-03T10:03:13;3.30;;;2.87;;
12840;SDS011;6487;48.626;12.486;2023-02-03T10:05:57;5.13;;;3.20;;
12840;SDS011;6487;48.626;12.486;2023-02-03T10:08:39;5.23;;;2.90;;
12840;SDS011;6487;48.626;12.486;2023-02-03T10:11:39;2.73;;;1.23;;
12840;SDS011;6487;48.626;12.486;2023-02-03T10:14:45;2.33;;;1.70;;
12840;SDS011;6487;48.626;12.486;2023-02-03T10:17:27;3.77;;;1.60;;
12840;SDS011;6487;48.626;12.486;2023-02-03T10:20:01;1.30;;;1.20;;
12840;SDS011;6487;48.626;12.486;2023-02-03T10:22:36;2.23;;;1.50;;
12840;SDS011;6487;48.626;12.486;2023-02-03T10:25:15;5.00;;;2.10;;
12840;SDS011;6487;48.626;12.486;2023-02-03T10:27:50;2.33;;;1.77;;
12840;SDS011;6487;48.626;12.486;2023-02-03T10:30:25;4.20;;;2.33;;
12840;SDS011;6487;48.626;12.486;2023-02-03T10:32:59;3.30;;;2.23;;
12840;SDS011;6487;48.626;12.486;2023-02-03T10:35:49;2.53;;;1.50;;
12840;SDS011;6487;48.626;12.486;2023-02-03T10:38:30;2.80;;;1.20;;
12840;SDS011;6487;48.626;12.486;2023-02-03T10:41:17;1.27;;;1.10;;
12840;SDS011;6487;48.626;12.486;2023-02-03T10:43:46;1.13;;;1.00;;
12840;SDS011;6487;48.626;12.486;2023-02-03T10:46:20;1.50;;;1.20;;
12840;SDS011;6487;48.626;12.486;2023-02-03T10:48:55;2.53;;;1.10;;
12840;SDS011;6487;48.626;12.486;2023-02-03T10:51:24;1.20;;;0.90;;
12840;SDS011;6487;48.626;12.486;2023-02-03T10:53:55;3.67;;;1.20;;
12840;SDS011;6487;48.626;12.486;2023-02-03T10:56:25;3.27;;;1.90;;
12840;SDS011;6487;48.626;12.486;2023-02-03T10:58:57;3.43;;;1.80;;
12840;SDS011;6487;48.626;12.486;2023-02-03T11:01:39;2.30;;;1.40;;
12840;SDS011;6487;48.626;12.486;2023-02-03T11:04:21;1.20;;;1.10;;
12840;SDS011;6487;48.626;12.486;2023-02-03T11:06:54;3.77;;;1.70;;
12840;SDS011;6487;48.626;12.486;2023-02-03T11:09:27;2.90;;;1.50;;
12840;SDS011;6487;48.626;12.486;2023-02-03T11:12:01;2.17;;;1.50;;
12840;SDS011;6487;48.626;12.486;2023-02-03T11:14:40;2.23;;;1.30;;
12840;SDS011;6487;48.626;12.486;2023-02-03T11:17:15;2.17;;;1.10;;
12840;SDS011;6487;48.626;12.486;2023-02-03T11:19:45;1.30;;;0.73;;
12840;SDS011;6487;48.626;12.486;2023-02-03T11:22:25;2.30;;;0.80;;
12840;SDS011;6487;48.626;12.486;2023-02-03T11:24:55;1.97;;;0.90;;
12840;SDS011;6487;48.626;12.486;2023-02-03T11:27:25;1.13;;;0.70;;
12840;SDS011;6487;48.626;12.486;2023-02-03T11:30:06;1.37;;;0.83;;
12840;SDS011;6487;48.626;12.486;2023-02-03T11:32:42;4.00;;;1.10;;
12840;SDS011;6487;48.626;12.486;2023-02-03T11:35:13;1.40;;;0.80;;
12840;SDS011;6487;48.626;12.486;2023-02-03T11:37:46;2.60;;;1.00;;
12840;SDS011;6487;48.626;12.486;2023-02-03T11:40:23;1.03;;;0.87;;
12840;SDS011;6487;48.626;12.486;2023-02-03T11:43:01;3.20;;;0.90;;
12840;SDS011;6487;48.626;12.486;2023-02-03T11:45:36;3.07;;;1.70;;
12840;SDS011;6487;48.626;12.486;2023-02-03T11:48:15;4.17;;;1.30;;
12840;SDS011;6487;48.626;12.486;2023-02-03T11:50:54;2.23;;;1.13;;
12840;SDS011;6487;48.626;12.486;2023-02-03T11:53:30;6.10;;;3.70;;
12840;SDS011;6487;48.626;12.486;2023-02-03T11:56:27;3.20;;;1.80;;
12840;SDS011;6487;48.626;12.486;2023-02-03T12:05:36;1.63;;;1.37;;
12840;SDS011;6487;48.626;12.486;2023-02-03T12:08:35;3.67;;;1.30;;
12840;SDS011;6487;48.626;12.486;2023-02-03T12:11:22;3.40;;;1.23;;
12840;SDS011;6487;48.626;12.486;2023-02-03T12:14:12;1.57;;;1.10;;
12840;SDS011;6487;48.626;12.486;2023-02-03T12:17:09;2.23;;;1.00;;
12840;SDS011;6487;48.626;12.486;2023-02-03T12:20:00;1.00;;;0.97;;
12840;SDS011;6487;48.626;12.486;2023-02-03T12:22:48;1.47;;;0.90;;
12840;SDS011;6487;48.626;12.486;2023-02-03T12:25:31;2.23;;;0.87;;
12840;SDS011;6487;48.626;12.486;2023-02-03T12:28:14;2.10;;;1.17;;
12840;SDS011;6487;48.626;12.486;2023-02-03T12:31:01;1.03;;;0.93;;
12840;SDS011;6487;48.626;12.486;2023-02-03T12:33:37;1.43;;;1.20;;
12840;SDS011;6487;48.626;12.486;2023-02-03T12:36:10;1.13;;;1.03;;
12840;SDS011;6487;48.626;12.486;2023-02-03T12:38:48;1.20;;;1.10;;
12840;SDS011;6487;48.626;12.486;2023-02-03T12:41:23;2.23;;;1.70;;
12840;SDS011;6487;48.626;12.486;2023-02-03T12:43:57;1.77;;;1.17;;
12840;SDS011;6487;48.626;12.486;2023-02-03T12:46:31;1.43;;;0.83;;
12840;SDS011;6487;48.626;12.486;2023-02-03T12:49:09;1.77;;;0.90;;
12840;SDS011;6487;48.626;12.486;2023-02-03T12:51:47;1.30;;;1.00;;
12840;SDS011;6487;48.626;12.486;2023-02-03T12:54:24;1.40;;;0.70;;
12840;SDS011;6487;48.626;12.486;2023-02-03T12:57:12;1.73;;;1.20;;
12840;SDS011;6487;48.626;12.486;2023-02-03T12:59:49;5.80;;;1.77;;
12840;SDS011;6487;48.626;12.486;2023-02-03T13:02:34;4.17;;;2.17;;
12840;SDS011;6487;48.626;12.486;2023-02-03T13:05:18;4.70;;;3.83;;
12840;SDS011;6487;48.626;12.486;2023-02-03T13:07:54;3.70;;;2.43;;
12840;SDS011;6487;48.626;12.486;2023-02-03T13:10:36;1.80;;;1.50;;
12840;SDS011;6487;48.626;12.486;2023-02-03T13:13:10;0.73;;;0.70;;
12840;SDS011;6487;48.626;12.486;2023-02-03T13:15:44;3.30;;;0.87;;
12840;SDS011;6487;48.626;12.486;2023-02-03T13:18:19;2.20;;;1.03;;
12840;SDS011;6487;48.626;12.486;2023-02-03T13:20:54;1.57;;;0.90;;
12840;SDS011;6487;48.626;12.486;2023-02-03T13:23:23;2.60;;;1.93;;
12840;SDS011;6487;48.626;12.486;2023-02-03T13:26:07;2.63;;;1.40;;
12840;SDS011;6487;48.626;12.486;2023-02-03T13:28:58;2.37;;;1.50;;
12840;SDS011;6487;48.626;12.486;2023-02-03T13:31:42;2.03;;;1.30;;
12840;SDS011;6487;48.626;12.486;2023-02-03T13:40:26;1.63;;;1.00;;
12840;SDS011;6487;48.626;12.486;2023-02-03T13:43:09;1.90;;;1.00;;
12840;SDS011;6487;48.626;12.486;2023-02-03T13:45:57;1.93;;;0.97;;
12840;SDS011;6487;48.626;12.486;2023-02-03T13:48:26;2.00;;;1.10;;
12840;SDS011;6487;48.626;12.486;2023-02-03T13:51:01;1.93;;;1.00;;
12840;SDS011;6487;48.626;12.486;2023-02-03T13:53:34;1.13;;;0.90;;
12840;SDS011;6487;48.626;12.486;2023-02-03T13:56:06;2.30;;;1.03;;
12840;SDS011;6487;48.626;12.486;2023-02-03T13:58:46;2.77;;;1.03;;
12840;SDS011;6487;48.626;12.486;2023-02-03T14:01:29;2.03;;;0.87;;
12840;SDS011;6487;48.626;12.486;2023-02-03T14:04:04;1.00;;;0.90;;
12840;SDS011;6487;48.626;12.486;2023-02-03T14:09:46;1.00;;;0.90;;
12840;SDS011;6487;48.626;12.486;2023-02-03T14:12:18;0.93;;;0.90;;
12840;SDS011;6487;48.626;12.486;2023-02-03T14:15:30;2.03;;;1.10;;
12840;SDS011;6487;48.626;12.486;2023-02-03T14:18:17;0.93;;;0.83;;
12840;SDS011;6487;48.626;12.486;2023-02-03T14:21:09;1.57;;;0.90;;
12840;SDS011;6487;48.626;12.486;2023-02-03T14:23:54;0.83;;;0.60;;
12840;SDS011;6487;48.626;12.486;2023-02-03T14:26:30;1.07;;;0.83;;
12840;SDS011;6487;48.626;12.486;2023-02-03T14:29:04;1.10;;;0.90;;
12840;SDS011;6487;48.626;12.486;2023-02-03T14:34:37;1.80;;;0.80;;
12840;SDS011;6487;48.626;12.486;2023-02-03T14:37:09;0.70;;;0.67;;
12840;SDS011;6487;48.626;12.486;2023-02-03T14:40:06;2.23;;;0.70;;
12840;SDS011;6487;48.626;12.486;2023-02-03T14:43:09;0.70;;;0.50;;
12840;SDS011;6487;48.626;12.486;2023-02-03T14:45:54;1.27;;;0.67;;
12840;SDS011;6487;48.626;12.486;2023-02-03T14:48:51;0.67;;;0.67;;
12840;SDS011;6487;48.626;12.486;2023-02-03T14:51:45;1.40;;;0.43;;
12840;SDS011;6487;48.626;12.486;2023-02-03T14:54:42;1.33;;;0.50;;
12840;SDS011;6487;48.626;12.486;2023-02-03T14:57:34;1.80;;;0.90;;
12840;SDS011;6487;48.626;12.486;2023-02-03T15:00:07;1.40;;;0.77;;
12840;SDS011;6487;48.626;12.486;2023-02-03T15:03:19;1.10;;;0.80;;
12840;SDS011;6487;48.626;12.486;2023-02-03T15:05:58;1.00;;;0.70;;
12840;SDS011;6487;48.626;12.486;2023-02-03T15:08:35;1.20;;;0.83;;
12840;SDS011;6487;48.626;12.486;2023-02-03T15:14:13;1.10;;;0.80;;
12840;SDS011;6487;48.626;12.486;2023-02-03T15:16:49;2.13;;;0.80;;
12840;SDS011;6487;48.626;12.486;2023-02-03T15:19:24;0.93;;;0.77;;
12840;SDS011;6487;48.626;12.486;2023-02-03T15:21:56;1.40;;;0.80;;
12840;SDS011;6487;48.626;12.486;2023-02-03T15:24:24;0.90;;;0.70;;
12840;SDS011;6487;48.626;12.486;2023-02-03T15:27:01;1.77;;;1.00;;
12840;SDS011;6487;48.626;12.486;2023-02-03T15:29:30;0.83;;;0.70;;
12840;SDS011;6487;48.626;12.486;2023-02-03T15:32:03;6.70;;;2.20;;
12840;SDS011;6487;48.626;12.486;2023-02-03T15:34:37;2.77;;;2.10;;
12840;SDS011;6487;48.626;12.486;2023-02-03T15:37:13;2.37;;;1.40;;
12840;SDS011;6487;48.626;12.486;2023-02-03T15:39:51;6.80;;;3.20;;
12840;SDS011;6487;48.626;12.486;2023-02-03T15:42:28;3.33;;;2.50;;
12840;SDS011;6487;48.626;12.486;2023-02-03T15:45:01;5.57;;;2.70;;
12840;SDS011;6487;48.626;12.486;2023-02-03T15:47:36;1.47;;;1.10;;
12840;SDS011;6487;48.626;12.486;2023-02-03T15:50:15;3.73;;;1.90;;